Terminal Aerodrome Forecast
Issued by NWS

Home | Current Version | Previous Version | Text Only | Print | Product List | Glossary On
Versions: 1 2 3 4 5 6 7 8 9 10 11 12 13
470
FTUS46 KHNX 241120
TAFVIS
TAF
KVIS 241120Z 2412/2512 30007KT P6SM -RA OVC090
     FM242300 32009KT P6SM SCT050 BKN100 PROB30 2500/2506 -SHRA
      BKN050
     FM250600 30006KT P6SM OVC050
     FM250900 30007KT P6SM SKC=

USA.gov is the U.S. government's official web portal to all federal, state and local government web resources and services.